Time;durP1;ratioP1;P1;durP2;ratioP2;P2;SDS_P1;SDS_P2;PMS_P1;PMS_P2;Temp;Humidity;BMP_temperature;BMP_pressure;BME280_temperature;BME280_humidity;BME280_pressure;Samples;Min_cycle;Max_cycle;Signal;HPM_P1;HPM_P2
2023/04/20 00:00:16;;;;;;;15.15;9.00;;;;;;;;;;12981815;19;20010;-66
2023/04/20 00:04:55;;;;;;;15.52;10.07;;;;;;;;;;12981929;19;20045;-66
2023/04/20 00:09:14;;;;;;;16.25;9.90;;;;;;;;;;12980413;19;20350;-66
2023/04/20 00:13:32;;;;;;;14.88;8.48;;;;;;;;;;12997100;19;20006;-66
2023/04/20 00:17:50;;;;;;;13.10;9.00;;;;;;;;;;13005135;19;20031;-66
2023/04/20 00:22:08;;;;;;;16.58;9.40;;;;;;;;;;13004021;19;20006;-66
2023/04/20 00:26:25;;;;;;;;;;;;;;;;;;13005856;19;20027;-66
2023/04/20 00:30:43;;;;;;;14.30;9.10;;;;;;;;;;13005701;19;19914;-66
2023/04/20 00:35:01;;;;;;;14.80;9.90;;;;;;;;;;13004527;19;20031;-66
2023/04/20 00:39:19;;;;;;;16.63;9.30;;;;;;;;;;13004817;19;20015;-65
2023/04/20 00:43:36;;;;;;;14.20;8.60;;;;;;;;;;13005364;19;20018;-65
2023/04/20 00:47:54;;;;;;;15.73;8.88;;;;;;;;;;13005481;19;20015;-66
2023/04/20 00:52:12;;;;;;;17.35;8.73;;;;;;;;;;13003810;19;20014;-66
2023/04/20 00:56:30;;;;;;;16.05;9.35;;;;;;;;;;13002856;19;20011;-66
2023/04/20 01:00:47;;;;;;;18.15;9.43;;;;;;;;;;13002596;19;20370;-66
2023/04/20 01:05:05;;;;;;;16.80;11.32;;;;;;;;;;13004827;19;20028;-66
2023/04/20 01:09:23;;;;;;;;;;;;;;;;;;13002038;19;20130;-66
2023/04/20 01:13:41;;;;;;;14.07;9.63;;;;;;;;;;13002383;19;19926;-66
2023/04/20 01:17:59;;;;;;;14.43;9.15;;;;;;;;;;13002628;19;20587;-66
2023/04/20 01:22:19;;;;;;;13.43;8.50;;;;;;;;;;13000811;19;20398;-65
2023/04/20 01:26:37;;;;;;;10.82;7.82;;;;;;;;;;12988883;19;20010;-65
2023/04/20 01:30:55;;;;;;;12.35;7.95;;;;;;;;;;12990010;19;20018;-66
2023/04/20 01:35:14;;;;;;;11.82;7.75;;;;;;;;;;12989019;19;20021;-66
2023/04/20 01:39:36;;;;;;;13.38;7.53;;;;;;;;;;12989363;19;20010;-65
2023/04/20 01:43:54;;;;;;;12.60;7.53;;;;;;;;;;12989250;19;20474;-65
2023/04/20 01:48:12;;;;;;;13.57;8.15;;;;;;;;;;12987724;19;20010;-66
2023/04/20 01:52:29;;;;;;;10.27;6.90;;;;;;;;;;12986313;19;20292;-65
2023/04/20 01:56:47;;;;;;;12.13;6.90;;;;;;;;;;12988372;19;20010;-65
2023/04/20 02:01:04;;;;;;;9.82;6.70;;;;;;;;;;12987801;19;20344;-66
2023/04/20 02:05:22;;;;;;;11.70;7.32;;;;;;;;;;12988286;19;20019;-65
2023/04/20 02:09:40;;;;;;;11.27;7.57;;;;;;;;;;12988090;19;20018;-65
2023/04/20 02:13:57;;;;;;;11.25;7.32;;;;;;;;;;12987832;19;20465;-65
2023/04/20 02:18:16;;;;;;;11.98;7.70;;;;;;;;;;12987594;19;20022;-65
2023/04/20 02:22:35;;;;;;;;;;;;;;;;;;12987785;19;20046;-65
2023/04/20 02:26:52;;;;;;;;;;;;;;;;;;12987917;19;19930;-65
2023/04/20 02:31:10;;;;;;;13.13;7.73;;;;;;;;;;12985914;19;20342;-66
2023/04/20 02:35:29;;;;;;;11.93;7.55;;;;;;;;;;12985704;19;20049;-66
2023/04/20 02:39:47;;;;;;;15.52;8.15;;;;;;;;;;12985863;19;20348;-66
2023/04/20 02:44:04;;;;;;;16.55;8.43;;;;;;;;;;12985192;19;20381;-66
2023/04/20 02:48:22;;;;;;;13.32;8.18;;;;;;;;;;12985553;19;20021;-66
2023/04/20 02:52:40;;;;;;;14.48;8.68;;;;;;;;;;12985362;19;20014;-66
2023/04/20 02:56:57;;;;;;;16.50;9.20;;;;;;;;;;12984922;19;20537;-66
2023/04/20 03:01:15;;;;;;;12.38;8.52;;;;;;;;;;12984161;19;20358;-66
2023/04/20 03:05:33;;;;;;;13.55;8.38;;;;;;;;;;12983410;19;20010;-65
2023/04/20 03:09:50;;;;;;;14.00;8.63;;;;;;;;;;12984842;19;20014;-65
2023/04/20 03:14:08;;;;;;;22.17;10.98;;;;;;;;;;12984776;19;20039;-65
2023/04/20 03:18:26;;;;;;;16.70;10.07;;;;;;;;;;12984768;19;20020;-65
2023/04/20 03:22:43;;;;;;;18.27;10.13;;;;;;;;;;12983897;19;20041;-66
2023/04/20 03:27:01;;;;;;;21.92;11.27;;;;;;;;;;12983166;19;20477;-68
2023/04/20 03:31:19;;;;;;;20.73;11.95;;;;;;;;;;12983388;19;20014;-66
2023/04/20 03:35:38;;;;;;;21.00;12.10;;;;;;;;;;12982695;19;20040;-65
2023/04/20 03:39:56;;;;;;;23.50;11.80;;;;;;;;;;12983766;19;20056;-65
2023/04/20 03:44:14;;;;;;;27.90;13.05;;;;;;;;;;12983319;19;20014;-66
2023/04/20 03:48:32;;;;;;;21.42;11.82;;;;;;;;;;12981981;19;20013;-66
2023/04/20 03:52:50;;;;;;;24.23;12.65;;;;;;;;;;12983218;19;20010;-66
2023/04/20 03:57:08;;;;;;;19.92;11.75;;;;;;;;;;12982485;19;20100;-66
2023/04/20 04:01:25;;;;;;;21.73;11.45;;;;;;;;;;12983779;19;20354;-66
2023/04/20 04:05:43;;;;;;;24.77;13.60;;;;;;;;;;12983685;19;20015;-65
2023/04/20 04:10:03;;;;;;;28.08;15.15;;;;;;;;;;12983034;19;20411;-64
2023/04/20 04:14:53;;;;;;;30.00;14.55;;;;;;;;;;12982449;19;20022;-65
2023/04/20 04:19:16;;;;;;;22.13;13.27;;;;;;;;;;12981356;19;20022;-65
2023/04/20 04:23:36;;;;;;;28.42;15.13;;;;;;;;;;12981721;19;20054;-65
2023/04/20 04:27:53;;;;;;;29.27;15.98;;;;;;;;;;12981487;19;20006;-65
2023/04/20 04:32:15;;;;;;;25.45;13.07;;;;;;;;;;12981290;19;20026;-65
2023/04/20 04:36:52;;;;;;;38.92;21.60;;;;;;;;;;12980618;19;20460;-65
2023/04/20 04:41:29;;;;;;;44.67;25.83;;;;;;;;;;12981120;19;20022;-65
2023/04/20 04:45:48;;;;;;;40.10;20.27;;;;;;;;;;12982094;19;20022;-66
2023/04/20 04:50:08;;;;;;;28.63;16.95;;;;;;;;;;12981183;19;20038;-65
2023/04/20 04:54:27;;;;;;;33.00;19.20;;;;;;;;;;12980877;19;20021;-65
2023/04/20 04:58:45;;;;;;;28.45;15.88;;;;;;;;;;12984810;19;20018;-65
2023/04/20 05:03:02;;;;;;;;;;;;;;;;;;12993238;19;20022;-65
2023/04/20 05:07:21;;;;;;;26.20;14.43;;;;;;;;;;12992842;19;19932;-66
2023/04/20 05:11:38;;;;;;;;;;;;;;;;;;12992433;19;20023;-65
2023/04/20 05:15:56;;;;;;;24.08;13.30;;;;;;;;;;12990935;19;19918;-66
2023/04/20 05:20:14;;;;;;;21.08;11.45;;;;;;;;;;12990870;19;20019;-66
2023/04/20 05:24:31;;;;;;;20.45;12.85;;;;;;;;;;12990973;19;20031;-66
2023/04/20 05:28:50;;;;;;;27.67;14.15;;;;;;;;;;12991958;19;20606;-65
2023/04/20 05:33:08;;;;;;;24.77;13.00;;;;;;;;;;12990651;19;20024;-65
2023/04/20 05:37:26;;;;;;;23.83;11.50;;;;;;;;;;12990071;19;20035;-65
2023/04/20 05:41:46;;;;;;;23.02;12.57;;;;;;;;;;12989876;19;20021;-65
2023/04/20 05:46:04;;;;;;;20.20;12.32;;;;;;;;;;12988226;19;20106;-65
2023/04/20 05:50:23;;;;;;;19.77;11.68;;;;;;;;;;12989862;19;20026;-65
2023/04/20 05:54:41;;;;;;;20.52;12.27;;;;;;;;;;12988991;19;20011;-65
2023/04/20 05:58:59;;;;;;;18.90;10.98;;;;;;;;;;12988279;19;20023;-66
2023/04/20 06:03:16;;;;;;;18.98;10.40;;;;;;;;;;12988103;19;20347;-66
2023/04/20 06:07:36;;;;;;;16.42;9.70;;;;;;;;;;12987909;19;20015;-66
2023/04/20 06:11:53;;;;;;;19.85;11.05;;;;;;;;;;12986378;19;20014;-66
2023/04/20 06:16:11;;;;;;;16.80;10.30;;;;;;;;;;12987330;19;20014;-66
2023/04/20 06:20:29;;;;;;;16.65;9.77;;;;;;;;;;12978707;19;20018;-67
2023/04/20 06:24:47;;;;;;;16.83;9.38;;;;;;;;;;12968244;19;20024;-67
2023/04/20 06:29:05;;;;;;;17.92;9.23;;;;;;;;;;12977347;19;20015;-67
2023/04/20 06:33:22;;;;;;;18.77;9.73;;;;;;;;;;12987081;19;20021;-67
2023/04/20 06:37:40;;;;;;;11.35;7.13;;;;;;;;;;12985924;19;20018;-67
2023/04/20 06:41:58;;;;;;;;;;;;;;;;;;12986973;19;20052;-66
2023/04/20 06:46:16;;;;;;;13.75;8.43;;;;;;;;;;12985580;19;19915;-66
2023/04/20 06:50:34;;;;;;;17.27;8.20;;;;;;;;;;12985998;19;20014;-66
2023/04/20 06:54:52;;;;;;;12.60;7.80;;;;;;;;;;12985712;19;20021;-66
2023/04/20 06:59:09;;;;;;;;;;;;;;;;;;12985229;19;20011;-67
2023/04/20 07:03:27;;;;;;;13.18;7.35;;;;;;;;;;12985892;19;19926;-67
2023/04/20 07:07:45;;;;;;;;;;;;;;;;;;12986073;19;20493;-67
2023/04/20 07:12:02;;;;;;;12.70;7.40;;;;;;;;;;12984020;19;19922;-68
2023/04/20 07:16:20;;;;;;;12.02;6.53;;;;;;;;;;12983828;19;20010;-67
2023/04/20 07:20:38;;;;;;;11.50;6.72;;;;;;;;;;12981171;19;20010;-68
2023/04/20 07:24:56;;;;;;;;;;;;;;;;;;12983715;19;20021;-67
2023/04/20 07:29:13;;;;;;;12.32;6.68;;;;;;;;;;12983015;19;20561;-68
2023/04/20 07:33:34;;;;;;;12.00;6.50;;;;;;;;;;12982898;19;20019;-68
2023/04/20 07:37:52;;;;;;;13.82;6.80;;;;;;;;;;12982829;19;20014;-68
2023/04/20 07:42:10;;;;;;;8.95;5.47;;;;;;;;;;12981599;19;20014;-68
2023/04/20 07:46:27;;;;;;;8.35;4.75;;;;;;;;;;12982234;19;20473;-68
2023/04/20 07:50:45;;;;;;;6.55;4.28;;;;;;;;;;12982145;19;20448;-68
2023/04/20 07:55:06;;;;;;;9.77;5.55;;;;;;;;;;12981459;19;20021;-69
2023/04/20 07:59:24;;;;;;;8.98;5.25;;;;;;;;;;12982567;19;20021;-68
2023/04/20 08:03:42;;;;;;;7.13;4.88;;;;;;;;;;12981664;19;20018;-68
2023/04/20 08:08:00;;;;;;;12.52;5.70;;;;;;;;;;12981238;19;20010;-68
2023/04/20 08:12:18;;;;;;;8.40;5.22;;;;;;;;;;12981188;19;20006;-69
2023/04/20 08:16:35;;;;;;;11.82;5.68;;;;;;;;;;12980960;19;20089;-69
2023/04/20 08:20:54;;;;;;;8.20;4.82;;;;;;;;;;12979871;19;20031;-69
2023/04/20 08:25:12;;;;;;;8.75;4.78;;;;;;;;;;12980215;19;20014;-69
2023/04/20 08:29:30;;;;;;;9.05;4.78;;;;;;;;;;12980141;19;20026;-68
2023/04/20 08:33:47;;;;;;;6.38;3.47;;;;;;;;;;12985160;19;20007;-69
2023/04/20 08:38:06;;;;;;;;;;;;;;;;;;12992144;19;20058;-69
2023/04/20 08:42:23;;;;;;;;;;;;;;;;;;12993036;19;21109;-69
2023/04/20 08:46:46;;;;;;;7.07;3.53;;;;;;;;;;12992562;19;20314;-69
2023/04/20 08:51:04;;;;;;;6.60;3.97;;;;;;;;;;12990275;19;20018;-69
2023/04/20 08:55:22;;;;;;;5.53;3.60;;;;;;;;;;12989532;19;20474;-69
2023/04/20 08:59:39;;;;;;;6.28;2.47;;;;;;;;;;12990624;19;20014;-69
2023/04/20 09:03:59;;;;;;;4.93;3.28;;;;;;;;;;12992094;19;20011;-69
2023/04/20 09:08:17;;;;;;;11.20;4.30;;;;;;;;;;12991781;19;20350;-69
2023/04/20 09:12:41;;;;;;;6.00;3.13;;;;;;;;;;12990809;19;20022;-69
2023/04/20 09:17:01;;;;;;;10.30;5.63;;;;;;;;;;12989599;19;20304;-69
2023/04/20 09:21:20;;;;;;;127.38;37.30;;;;;;;;;;12988926;19;20027;-69
2023/04/20 09:25:39;;;;;;;12.93;6.22;;;;;;;;;;12990103;19;20496;-69
2023/04/20 09:29:59;;;;;;;13.68;6.07;;;;;;;;;;12989460;19;20484;-69
2023/04/20 09:34:19;;;;;;;11.50;5.32;;;;;;;;;;12989236;19;20011;-70
2023/04/20 09:38:37;;;;;;;7.30;4.07;;;;;;;;;;12988028;19;20018;-70
2023/04/20 09:43:01;;;;;;;13.98;5.45;;;;;;;;;;12987405;19;20027;-70
2023/04/20 09:47:21;;;;;;;6.60;3.65;;;;;;;;;;12984599;19;20010;-70
2023/04/20 09:51:45;;;;;;;8.15;4.53;;;;;;;;;;12989414;19;20014;-69
2023/04/20 09:56:05;;;;;;;7.38;3.88;;;;;;;;;;12988316;19;20033;-69
2023/04/20 10:00:26;;;;;;;11.30;6.68;;;;;;;;;;12987341;19;20011;-70
2023/04/20 10:04:55;;;;;;;8.80;4.25;;;;;;;;;;12988473;19;20018;-70
2023/04/20 10:09:23;;;;;;;16.75;3.55;;;;;;;;;;12987010;19;20038;-69
2023/04/20 10:13:40;;;;;;;;;;;;;;;;;;12988433;19;20107;-69
2023/04/20 10:17:58;;;;;;;15.52;7.32;;;;;;;;;;12985985;19;19919;-68
2023/04/20 10:22:32;;;;;;;9.52;3.70;;;;;;;;;;12985928;19;20290;-68
2023/04/20 10:26:49;;;;;;;4.82;3.55;;;;;;;;;;12986740;19;20041;-68
2023/04/20 10:31:11;;;;;;;11.95;6.45;;;;;;;;;;12983481;19;20412;-69
2023/04/20 10:35:50;;;;;;;9.30;5.43;;;;;;;;;;12986611;19;20002;-69
2023/04/20 10:40:09;;;;;;;11.30;5.30;;;;;;;;;;12984935;19;20359;-69
2023/04/20 10:44:27;;;;;;;13.15;6.47;;;;;;;;;;12986135;19;20477;-69
2023/04/20 10:48:52;;;;;;;8.73;4.30;;;;;;;;;;12985997;19;20037;-68
2023/04/20 10:53:21;;;;;;;9.13;5.00;;;;;;;;;;12982947;19;20469;-69
2023/04/20 10:57:43;;;;;;;11.75;6.68;;;;;;;;;;12984145;19;20027;-68
2023/04/20 11:02:06;;;;;;;13.27;4.88;;;;;;;;;;12984502;19;20469;-69
2023/04/20 11:06:24;;;;;;;18.60;5.22;;;;;;;;;;12984302;19;20018;-69
2023/04/20 11:10:42;;;;;;;7.95;4.90;;;;;;;;;;12983001;19;20489;-69
2023/04/20 11:15:01;;;;;;;7.55;4.70;;;;;;;;;;12983790;19;20018;-69
2023/04/20 11:19:28;;;;;;;8.90;4.40;;;;;;;;;;12982588;19;20028;-69
2023/04/20 11:23:48;;;;;;;8.80;3.10;;;;;;;;;;12982671;19;20019;-69
2023/04/20 11:28:10;;;;;;;7.03;3.40;;;;;;;;;;12983450;19;20018;-68
2023/04/20 11:32:28;;;;;;;6.20;3.00;;;;;;;;;;12983968;19;20017;-68
2023/04/20 11:36:46;;;;;;;;;;;;;;;;;;12984258;19;20146;-68
2023/04/20 11:41:03;;;;;;;8.40;3.22;;;;;;;;;;12982438;19;19922;-67
2023/04/20 11:45:22;;;;;;;4.40;2.45;;;;;;;;;;12982959;19;20041;-68
2023/04/20 11:49:39;;;;;;;8.82;3.35;;;;;;;;;;12981918;19;20025;-68
2023/04/20 11:53:57;;;;;;;6.35;2.65;;;;;;;;;;12981315;19;20027;-68
2023/04/20 11:58:14;;;;;;;11.38;2.50;;;;;;;;;;12980884;19;20025;-69
2023/04/20 12:02:32;;;;;;;5.60;2.15;;;;;;;;;;12981685;19;20477;-68
2023/04/20 12:06:50;;;;;;;;;;;;;;;;;;12980054;19;20608;-69
2023/04/20 12:11:08;;;;;;;10.18;2.33;;;;;;;;;;12980273;19;19926;-68
2023/04/20 12:15:26;;;;;;;6.50;3.03;;;;;;;;;;12981821;19;20022;-68
2023/04/20 12:19:44;;;;;;;5.38;1.98;;;;;;;;;;12980978;19;20473;-68
2023/04/20 12:24:03;;;;;;;;;;;;;;;;;;12979878;19;20007;-68
2023/04/20 12:28:20;;;;;;;4.95;2.42;;;;;;;;;;12980706;19;19926;-69
2023/04/20 12:32:38;;;;;;;4.03;2.33;;;;;;;;;;12980829;19;20018;-69
2023/04/20 12:36:56;;;;;;;;;;;;;;;;;;12980570;19;20010;-68
2023/04/20 12:41:14;;;;;;;6.35;2.03;;;;;;;;;;12979367;19;20330;-69
2023/04/20 12:45:32;;;;;;;4.25;2.05;;;;;;;;;;12978968;19;20011;-68
2023/04/20 12:49:50;;;;;;;6.75;2.40;;;;;;;;;;12979452;19;20011;-68
2023/04/20 12:54:08;;;;;;;7.10;1.80;;;;;;;;;;12978109;19;20039;-69
2023/04/20 12:58:25;;;;;;;11.68;2.95;;;;;;;;;;12979234;19;20022;-69
2023/04/20 13:02:43;;;;;;;10.15;2.65;;;;;;;;;;12978768;19;20026;-69
2023/04/20 13:07:01;;;;;;;10.10;1.90;;;;;;;;;;12978017;19;20025;-69
2023/04/20 13:11:19;;;;;;;;;;;;;;;;;;12978824;19;20336;-69
2023/04/20 13:15:37;;;;;;;6.03;2.13;;;;;;;;;;12978261;19;19935;-70
2023/04/20 13:19:56;;;;;;;5.20;2.15;;;;;;;;;;12983737;19;20014;-69
2023/04/20 13:24:14;;;;;;;8.45;2.13;;;;;;;;;;12989539;19;20691;-70
2023/04/20 13:28:32;;;;;;;4.10;1.83;;;;;;;;;;12990410;19;20029;-70
2023/04/20 13:32:50;;;;;;;5.78;1.75;;;;;;;;;;12989679;19;20018;-69
2023/04/20 13:37:08;;;;;;;5.72;1.15;;;;;;;;;;12988752;19;20027;-69
2023/04/20 13:41:25;;;;;;;7.35;3.35;;;;;;;;;;12989366;19;20012;-69
2023/04/20 13:45:43;;;;;;;4.32;2.13;;;;;;;;;;12988788;19;20048;-69
2023/04/20 13:50:02;;;;;;;42.30;17.15;;;;;;;;;;12988458;19;20011;-70
2023/04/20 13:54:20;;;;;;;6.82;2.30;;;;;;;;;;12988236;19;20409;-69
2023/04/20 13:58:37;;;;;;;;;;;;;;;;;;12987562;19;20245;-69
2023/04/20 14:02:55;;;;;;;5.72;2.22;;;;;;;;;;12988758;19;20254;-69
2023/04/20 14:07:14;;;;;;;6.43;1.60;;;;;;;;;;12987578;19;20142;-70
2023/04/20 14:11:31;;;;;;;3.70;1.67;;;;;;;;;;12987492;19;20013;-68
2023/04/20 14:15:50;;;;;;;4.68;2.25;;;;;;;;;;12988162;19;20053;-69
2023/04/20 14:20:09;;;;;;;4.82;1.75;;;;;;;;;;12986791;19;20014;-69
2023/04/20 14:24:27;;;;;;;4.28;1.52;;;;;;;;;;12986725;19;20014;-69
2023/04/20 14:28:45;;;;;;;7.00;2.40;;;;;;;;;;12987746;19;20021;-69
2023/04/20 14:33:04;;;;;;;3.83;1.45;;;;;;;;;;12985326;19;20010;-69
2023/04/20 14:37:23;;;;;;;4.90;1.60;;;;;;;;;;12986582;19;20026;-70
2023/04/20 14:41:41;;;;;;;6.60;1.50;;;;;;;;;;12986052;19;20024;-70
2023/04/20 14:45:59;;;;;;;2.42;1.52;;;;;;;;;;12984182;19;20015;-71
2023/04/20 14:50:17;;;;;;;5.30;1.65;;;;;;;;;;12985284;19;20014;-71
2023/04/20 14:54:35;;;;;;;1.83;1.23;;;;;;;;;;12985109;19;20011;-70
2023/04/20 14:58:52;;;;;;;2.80;1.83;;;;;;;;;;12984833;19;20026;-70
2023/04/20 15:03:10;;;;;;;;;;;;;;;;;;12984893;19;20031;-70
2023/04/20 15:07:28;;;;;;;3.88;1.85;;;;;;;;;;12984317;19;19931;-69
2023/04/20 15:11:45;;;;;;;17.08;2.13;;;;;;;;;;12984237;19;20003;-69
2023/04/20 15:16:03;;;;;;;;;;;;;;;;;;12984160;19;20018;-70
2023/04/20 15:20:22;;;;;;;4.30;1.30;;;;;;;;;;12983819;19;19917;-70
2023/04/20 15:24:40;;;;;;;3.13;1.35;;;;;;;;;;12983193;19;20388;-70
2023/04/20 15:28:57;;;;;;;7.10;1.75;;;;;;;;;;12983576;19;20045;-70
2023/04/20 15:33:14;;;;;;;10.80;4.10;;;;;;;;;;12982191;19;20121;-70
2023/04/20 15:37:32;;;;;;;9.70;3.40;;;;;;;;;;12983746;19;20010;-70
2023/04/20 15:41:50;;;;;;;7.60;2.80;;;;;;;;;;12979925;19;20010;-70
2023/04/20 15:46:08;;;;;;;12.80;4.13;;;;;;;;;;12981468;19;20053;-69
2023/04/20 15:50:26;;;;;;;;;;;;;;;;;;12983065;19;20011;-70
2023/04/20 15:54:46;;;;;;;7.70;2.40;;;;;;;;;;12981983;19;19921;-69
2023/04/20 15:59:04;;;;;;;9.85;2.55;;;;;;;;;;12980894;19;20014;-70
2023/04/20 16:03:21;;;;;;;6.70;1.98;;;;;;;;;;12981843;19;20035;-69
2023/04/20 16:07:39;;;;;;;3.13;1.45;;;;;;;;;;12982658;19;20014;-69
2023/04/20 16:11:57;;;;;;;11.45;1.67;;;;;;;;;;12982269;19;20035;-69
2023/04/20 16:16:15;;;;;;;3.88;1.50;;;;;;;;;;12982057;19;20021;-70
2023/04/20 16:20:33;;;;;;;4.80;1.45;;;;;;;;;;12982604;19;20010;-69
2023/04/20 16:24:50;;;;;;;;;;;;;;;;;;12982875;19;20011;-69
2023/04/20 16:29:08;;;;;;;6.20;1.92;;;;;;;;;;12981523;19;19910;-70
2023/04/20 16:33:26;;;;;;;6.63;2.05;;;;;;;;;;12981735;19;20025;-70
2023/04/20 16:37:44;;;;;;;4.55;1.90;;;;;;;;;;12981154;19;20024;-70
2023/04/20 16:42:02;;;;;;;6.57;2.05;;;;;;;;;;12979760;19;20022;-69
2023/04/20 16:46:21;;;;;;;6.85;2.05;;;;;;;;;;12980359;19;20011;-69
2023/04/20 16:50:39;;;;;;;36.25;8.27;;;;;;;;;;12980472;19;20759;-69
2023/04/20 16:54:58;;;;;;;12.45;4.00;;;;;;;;;;12985979;19;20356;-70
2023/04/20 16:59:16;;;;;;;6.57;2.55;;;;;;;;;;12991655;19;20430;-70
2023/04/20 17:03:33;;;;;;;;;;;;;;;;;;12993035;19;20002;-70
2023/04/20 17:07:51;;;;;;;6.20;2.17;;;;;;;;;;12992628;19;19930;-69
2023/04/20 17:12:09;;;;;;;6.03;2.88;;;;;;;;;;12991290;19;20469;-69
2023/04/20 17:16:27;;;;;;;6.05;2.80;;;;;;;;;;12993261;19;20364;-69
2023/04/20 17:20:46;;;;;;;9.88;2.45;;;;;;;;;;12991937;19;20019;-70
2023/04/20 17:25:05;;;;;;;6.65;2.78;;;;;;;;;;12990204;19;20347;-69
2023/04/20 17:29:24;;;;;;;6.28;2.72;;;;;;;;;;12992026;19;20046;-68
2023/04/20 17:33:43;;;;;;;12.05;4.80;;;;;;;;;;12987567;19;20043;-69
2023/04/20 17:38:01;;;;;;;12.18;4.38;;;;;;;;;;12990455;19;20026;-68
2023/04/20 17:42:19;;;;;;;9.82;5.15;;;;;;;;;;12990770;19;20025;-68
2023/04/20 17:46:36;;;;;;;16.87;6.90;;;;;;;;;;12987264;19;20019;-68
2023/04/20 17:50:54;;;;;;;19.83;6.47;;;;;;;;;;12990565;19;20029;-68
2023/04/20 17:55:14;;;;;;;11.73;6.70;;;;;;;;;;12989233;19;20303;-68
2023/04/20 17:59:32;;;;;;;18.60;7.40;;;;;;;;;;12989017;19;20006;-68
2023/04/20 18:03:50;;;;;;;13.13;6.97;;;;;;;;;;12988941;19;20017;-68
2023/04/20 18:08:09;;;;;;;;;;;;;;;;;;12987609;19;20038;-69
2023/04/20 18:12:27;;;;;;;27.95;10.00;;;;;;;;;;12989998;19;19919;-69
2023/04/20 18:16:45;;;;;;;20.42;8.60;;;;;;;;;;12989223;19;20063;-69
2023/04/20 18:21:03;;;;;;;;;;;;;;;;;;12987071;19;20018;-68
2023/04/20 18:25:21;;;;;;;22.80;9.32;;;;;;;;;;12987979;19;19985;-69
2023/04/20 18:29:39;;;;;;;;;;;;;;;;;;12988248;19;20015;-68
2023/04/20 18:33:56;;;;;;;25.67;9.38;;;;;;;;;;12987033;19;19922;-68
2023/04/20 18:38:14;;;;;;;22.33;9.57;;;;;;;;;;12986896;19;20604;-68
2023/04/20 18:42:32;;;;;;;17.40;7.97;;;;;;;;;;12986725;19;20014;-68
2023/04/20 18:46:49;;;;;;;17.77;9.00;;;;;;;;;;12987536;19;20489;-68
2023/04/20 18:51:07;;;;;;;29.75;13.18;;;;;;;;;;12986720;19;20349;-69
2023/04/20 18:55:25;;;;;;;21.00;9.70;;;;;;;;;;12987293;19;20014;-68
2023/04/20 18:59:42;;;;;;;14.15;7.47;;;;;;;;;;12985874;19;20022;-68
2023/04/20 19:04:00;;;;;;;15.05;6.68;;;;;;;;;;12986947;19;20021;-69
2023/04/20 19:08:18;;;;;;;15.52;7.68;;;;;;;;;;12985988;19;20018;-69
2023/04/20 19:12:37;;;;;;;14.63;8.25;;;;;;;;;;12985407;19;20017;-68
2023/04/20 19:16:54;;;;;;;22.00;10.10;;;;;;;;;;12984587;19;20023;-68
2023/04/20 19:21:12;;;;;;;27.05;13.00;;;;;;;;;;12983018;19;20029;-68
2023/04/20 19:25:30;;;;;;;21.15;9.85;;;;;;;;;;12984374;19;20011;-68
2023/04/20 19:29:48;;;;;;;14.77;5.63;;;;;;;;;;12984516;19;20022;-68
2023/04/20 19:34:07;;;;;;;14.70;5.60;;;;;;;;;;12983933;19;20010;-67
2023/04/20 19:38:25;;;;;;;;;;;;;;;;;;12985905;19;20497;-68
2023/04/20 19:42:42;;;;;;;14.70;5.10;;;;;;;;;;12981930;19;19947;-68
2023/04/20 19:47:00;;;;;;;17.85;7.80;;;;;;;;;;12984001;19;20022;-69
2023/04/20 19:51:18;;;;;;;10.00;3.95;;;;;;;;;;12983508;19;20026;-67
2023/04/20 19:55:36;;;;;;;8.13;3.85;;;;;;;;;;12983489;19;20369;-68
2023/04/20 19:59:53;;;;;;;10.20;4.35;;;;;;;;;;12982882;19;20057;-70
2023/04/20 20:04:11;;;;;;;15.85;5.25;;;;;;;;;;12982052;19;20018;-68
2023/04/20 20:08:30;;;;;;;17.38;7.47;;;;;;;;;;12982432;19;20031;-68
2023/04/20 20:12:47;;;;;;;13.05;5.00;;;;;;;;;;12982329;19;20029;-68
2023/04/20 20:17:05;;;;;;;16.77;5.43;;;;;;;;;;12980125;19;20011;-67
2023/04/20 20:21:23;;;;;;;30.33;6.57;;;;;;;;;;12981728;19;20027;-69
2023/04/20 20:25:41;;;;;;;9.48;4.45;;;;;;;;;;12982746;19;20022;-67
2023/04/20 20:29:59;;;;;;;13.65;6.38;;;;;;;;;;12988003;19;20002;-67
2023/04/20 20:34:16;;;;;;;14.27;6.50;;;;;;;;;;12994278;19;20018;-68
2023/04/20 20:38:34;;;;;;;23.30;8.52;;;;;;;;;;12993414;19;20021;-69
2023/04/20 20:42:53;;;;;;;31.67;12.32;;;;;;;;;;12993576;19;20022;-68
2023/04/20 20:47:11;;;;;;;24.75;10.20;;;;;;;;;;12993067;19;20719;-68
2023/04/20 20:51:28;;;;;;;43.55;13.20;;;;;;;;;;12993198;19;20022;-68
2023/04/20 20:55:46;;;;;;;17.88;8.70;;;;;;;;;;12993254;19;20014;-68
2023/04/20 21:00:09;;;;;;;18.10;6.75;;;;;;;;;;12991407;19;20419;-69
2023/04/20 21:04:28;;;;;;;16.02;7.53;;;;;;;;;;12992880;19;20014;-68
2023/04/20 21:08:47;;;;;;;10.15;5.35;;;;;;;;;;12992719;19;20018;-68
2023/04/20 21:13:06;;;;;;;8.73;3.95;;;;;;;;;;12991948;19;20018;-68
2023/04/20 21:17:24;;;;;;;9.15;4.00;;;;;;;;;;12992560;19;20018;-68
2023/04/20 21:21:41;;;;;;;9.75;4.68;;;;;;;;;;12990826;19;20477;-68
2023/04/20 21:25:59;;;;;;;16.42;5.57;;;;;;;;;;12991590;19;20038;-68
2023/04/20 21:30:17;;;;;;;7.50;4.20;;;;;;;;;;12990874;19;20023;-68
2023/04/20 21:34:35;;;;;;;10.18;5.18;;;;;;;;;;12991143;19;20010;-67
2023/04/20 21:38:53;;;;;;;17.33;4.00;;;;;;;;;;12990408;19;20010;-67
2023/04/20 21:43:10;;;;;;;8.93;4.90;;;;;;;;;;12986470;19;20015;-67
2023/04/20 21:47:28;;;;;;;10.55;4.90;;;;;;;;;;12990351;19;20347;-68
2023/04/20 21:51:46;;;;;;;8.02;4.20;;;;;;;;;;12990627;19;20007;-67
2023/04/20 21:56:04;;;;;;;8.18;3.25;;;;;;;;;;12989509;19;20054;-68
2023/04/20 22:00:22;;;;;;;;;;;;;;;;;;12991295;19;20021;-67
2023/04/20 22:04:39;;;;;;;;;;;;;;;;;;12991404;19;19914;-68
2023/04/20 22:08:57;;;;;;;;;;;;;;;;;;12990302;19;19915;-68
2023/04/20 22:13:15;;;;;;;;;;;;;;;;;;12989293;19;20355;-67
2023/04/20 22:17:33;;;;;;;;;;;;;;;;;;12989331;19;19946;-67
2023/04/20 22:21:51;;;;;;;;;;;;;;;;;;12988184;19;19932;-68
2023/04/20 22:26:09;;;;;;;;;;;;;;;;;;12987990;19;20310;-68
2023/04/20 22:30:26;;;;;;;;;;;;;;;;;;12988158;19;19935;-68
2023/04/20 22:34:44;;;;;;;;;;;;;;;;;;12988615;19;19931;-67
2023/04/20 22:39:01;;;;;;;;;;;;;;;;;;12988195;19;19930;-69
2023/04/20 22:43:20;;;;;;;;;;;;;;;;;;12988239;19;19933;-67
2023/04/20 22:47:38;;;;;;;;;;;;;;;;;;12988102;19;19910;-68
2023/04/20 22:51:56;;;;;;;;;;;;;;;;;;12986752;19;19922;-67
2023/04/20 22:56:14;;;;;;;;;;;;;;;;;;12987138;19;19910;-67
2023/04/20 23:00:31;;;;;;;;;;;;;;;;;;12986219;19;20366;-68
2023/04/20 23:04:50;;;;;;;;;;;;;;;;;;12987012;19;19922;-67
2023/04/20 23:09:07;;;;;;;;;;;;;;;;;;12985668;19;19941;-67
2023/04/20 23:13:28;;;;;;;;;;;;;;;;;;12986073;19;20274;-68
2023/04/20 23:17:46;;;;;;;;;;;;;;;;;;12986043;19;19923;-69
2023/04/20 23:22:04;;;;;;;;;;;;;;;;;;12983732;19;19945;-68
2023/04/20 23:26:22;;;;;;;;;;;;;;;;;;12985852;19;19939;-69
2023/04/20 23:30:40;;;;;;;;;;;;;;;;;;12985866;19;19974;-68
2023/04/20 23:34:57;;;;;;;;;;;;;;;;;;12985948;19;19934;-68
2023/04/20 23:39:15;;;;;;;;;;;;;;;;;;12985030;19;19918;-68
2023/04/20 23:43:33;;;;;;;;;;;;;;;;;;12984798;19;19922;-68
2023/04/20 23:47:52;;;;;;;;;;;;;;;;;;12985241;19;19951;-68
2023/04/20 23:52:09;;;;;;;;;;;;;;;;;;12983821;19;19919;-68
2023/04/20 23:56:27;;;;;;;;;;;;;;;;;;12984319;19;20413;-68
